sensor_id;sensor_type;location;lat;lon;timestamp;P1;durP1;ratioP1;P2;durP2;ratioP2
3567;SDS011;1798;48.486;9.232;2023-02-07T00:00:43;16.50;;;9.60;;
3567;SDS011;1798;48.486;9.232;2023-02-07T00:03:10;18.23;;;10.40;;
3567;SDS011;1798;48.486;9.232;2023-02-07T00:05:37;14.30;;;10.10;;
3567;SDS011;1798;48.486;9.232;2023-02-07T00:08:05;18.20;;;9.80;;
3567;SDS011;1798;48.486;9.232;2023-02-07T00:10:32;17.13;;;10.67;;
3567;SDS011;1798;48.486;9.232;2023-02-07T00:13:00;17.23;;;11.40;;
3567;SDS011;1798;48.486;9.232;2023-02-07T00:15:26;18.90;;;10.10;;
3567;SDS011;1798;48.486;9.232;2023-02-07T00:17:54;16.43;;;10.63;;
3567;SDS011;1798;48.486;9.232;2023-02-07T00:20:21;18.57;;;10.50;;
3567;SDS011;1798;48.486;9.232;2023-02-07T00:22:49;16.63;;;10.07;;
3567;SDS011;1798;48.486;9.232;2023-02-07T00:25:16;23.70;;;12.47;;
3567;SDS011;1798;48.486;9.232;2023-02-07T00:27:43;21.30;;;11.67;;
3567;SDS011;1798;48.486;9.232;2023-02-07T00:30:10;17.03;;;10.03;;
3567;SDS011;1798;48.486;9.232;2023-02-07T00:32:38;25.40;;;11.30;;
3567;SDS011;1798;48.486;9.232;2023-02-07T00:35:06;17.00;;;11.03;;
3567;SDS011;1798;48.486;9.232;2023-02-07T00:37:34;30.30;;;11.80;;
3567;SDS011;1798;48.486;9.232;2023-02-07T00:40:00;23.57;;;13.03;;
3567;SDS011;1798;48.486;9.232;2023-02-07T00:42:27;18.57;;;11.37;;
3567;SDS011;1798;48.486;9.232;2023-02-07T00:44:53;16.67;;;11.00;;
3567;SDS011;1798;48.486;9.232;2023-02-07T00:47:20;25.20;;;10.97;;
3567;SDS011;1798;48.486;9.232;2023-02-07T00:49:47;22.30;;;13.33;;
3567;SDS011;1798;48.486;9.232;2023-02-07T00:52:15;19.50;;;10.60;;
3567;SDS011;1798;48.486;9.232;2023-02-07T00:54:42;27.77;;;11.50;;
3567;SDS011;1798;48.486;9.232;2023-02-07T00:57:08;20.50;;;11.23;;
3567;SDS011;1798;48.486;9.232;2023-02-07T00:59:35;19.53;;;10.83;;
3567;SDS011;1798;48.486;9.232;2023-02-07T01:02:02;21.73;;;12.27;;
3567;SDS011;1798;48.486;9.232;2023-02-07T01:04:28;20.37;;;12.00;;
3567;SDS011;1798;48.486;9.232;2023-02-07T01:06:55;25.23;;;11.67;;
3567;SDS011;1798;48.486;9.232;2023-02-07T01:09:23;20.63;;;11.57;;
3567;SDS011;1798;48.486;9.232;2023-02-07T01:11:50;24.77;;;12.10;;
3567;SDS011;1798;48.486;9.232;2023-02-07T01:14:17;24.50;;;13.73;;
3567;SDS011;1798;48.486;9.232;2023-02-07T01:16:44;18.10;;;10.03;;
3567;SDS011;1798;48.486;9.232;2023-02-07T01:19:11;21.93;;;11.77;;
3567;SDS011;1798;48.486;9.232;2023-02-07T01:21:38;22.20;;;12.83;;
3567;SDS011;1798;48.486;9.232;2023-02-07T01:24:05;24.23;;;13.07;;
3567;SDS011;1798;48.486;9.232;2023-02-07T01:26:34;25.03;;;13.70;;
3567;SDS011;1798;48.486;9.232;2023-02-07T01:29:01;29.27;;;13.30;;
3567;SDS011;1798;48.486;9.232;2023-02-07T01:31:27;20.37;;;11.67;;
3567;SDS011;1798;48.486;9.232;2023-02-07T01:33:55;21.87;;;12.17;;
3567;SDS011;1798;48.486;9.232;2023-02-07T01:36:23;27.40;;;12.73;;
3567;SDS011;1798;48.486;9.232;2023-02-07T01:38:51;18.97;;;10.90;;
3567;SDS011;1798;48.486;9.232;2023-02-07T01:41:19;17.97;;;10.83;;
3567;SDS011;1798;48.486;9.232;2023-02-07T01:43:55;21.23;;;13.57;;
3567;SDS011;1798;48.486;9.232;2023-02-07T01:46:25;27.27;;;13.97;;
3567;SDS011;1798;48.486;9.232;2023-02-07T01:48:52;27.03;;;12.33;;
3567;SDS011;1798;48.486;9.232;2023-02-07T01:51:20;21.90;;;11.63;;
3567;SDS011;1798;48.486;9.232;2023-02-07T01:53:48;18.90;;;11.40;;
3567;SDS011;1798;48.486;9.232;2023-02-07T01:56:15;21.80;;;11.93;;
3567;SDS011;1798;48.486;9.232;2023-02-07T01:58:42;24.77;;;13.20;;
3567;SDS011;1798;48.486;9.232;2023-02-07T02:01:12;20.57;;;11.63;;
3567;SDS011;1798;48.486;9.232;2023-02-07T02:03:43;32.73;;;13.43;;
3567;SDS011;1798;48.486;9.232;2023-02-07T02:06:13;25.33;;;12.93;;
3567;SDS011;1798;48.486;9.232;2023-02-07T02:08:41;30.23;;;12.83;;
3567;SDS011;1798;48.486;9.232;2023-02-07T02:11:18;23.07;;;12.50;;
3567;SDS011;1798;48.486;9.232;2023-02-07T02:13:54;22.87;;;13.17;;
3567;SDS011;1798;48.486;9.232;2023-02-07T02:16:28;33.97;;;14.03;;
3567;SDS011;1798;48.486;9.232;2023-02-07T02:19:03;18.80;;;11.87;;
3567;SDS011;1798;48.486;9.232;2023-02-07T02:22:10;25.10;;;13.27;;
3567;SDS011;1798;48.486;9.232;2023-02-07T02:24:58;22.70;;;13.20;;
3567;SDS011;1798;48.486;9.232;2023-02-07T02:30:55;20.70;;;11.10;;
3567;SDS011;1798;48.486;9.232;2023-02-07T02:33:44;19.73;;;12.07;;
3567;SDS011;1798;48.486;9.232;2023-02-07T02:36:17;23.47;;;12.00;;
3567;SDS011;1798;48.486;9.232;2023-02-07T02:38:48;22.87;;;11.40;;
3567;SDS011;1798;48.486;9.232;2023-02-07T02:41:17;18.07;;;11.43;;
3567;SDS011;1798;48.486;9.232;2023-02-07T02:43:49;17.43;;;10.80;;
3567;SDS011;1798;48.486;9.232;2023-02-07T02:46:18;19.93;;;11.77;;
3567;SDS011;1798;48.486;9.232;2023-02-07T02:48:48;21.23;;;11.90;;
3567;SDS011;1798;48.486;9.232;2023-02-07T02:51:15;20.93;;;11.53;;
3567;SDS011;1798;48.486;9.232;2023-02-07T02:53:49;18.57;;;11.73;;
3567;SDS011;1798;48.486;9.232;2023-02-07T02:59:17;23.13;;;14.87;;
3567;SDS011;1798;48.486;9.232;2023-02-07T03:01:53;24.50;;;13.13;;
3567;SDS011;1798;48.486;9.232;2023-02-07T03:04:32;17.80;;;12.30;;
3567;SDS011;1798;48.486;9.232;2023-02-07T03:07:15;28.13;;;13.60;;
3567;SDS011;1798;48.486;9.232;2023-02-07T03:09:49;25.73;;;14.73;;
3567;SDS011;1798;48.486;9.232;2023-02-07T03:12:20;30.47;;;14.40;;
3567;SDS011;1798;48.486;9.232;2023-02-07T03:14:52;25.27;;;13.80;;
3567;SDS011;1798;48.486;9.232;2023-02-07T03:17:24;31.67;;;15.17;;
3567;SDS011;1798;48.486;9.232;2023-02-07T03:19:54;22.73;;;14.83;;
3567;SDS011;1798;48.486;9.232;2023-02-07T03:22:23;27.90;;;15.57;;
3567;SDS011;1798;48.486;9.232;2023-02-07T03:24:52;28.00;;;15.53;;
3567;SDS011;1798;48.486;9.232;2023-02-07T03:27:21;33.60;;;17.33;;
3567;SDS011;1798;48.486;9.232;2023-02-07T03:29:50;27.60;;;15.37;;
3567;SDS011;1798;48.486;9.232;2023-02-07T03:32:21;24.77;;;15.00;;
3567;SDS011;1798;48.486;9.232;2023-02-07T03:34:51;27.00;;;16.07;;
3567;SDS011;1798;48.486;9.232;2023-02-07T03:37:21;19.97;;;13.97;;
3567;SDS011;1798;48.486;9.232;2023-02-07T03:39:50;25.87;;;16.40;;
3567;SDS011;1798;48.486;9.232;2023-02-07T03:42:20;26.90;;;15.20;;
3567;SDS011;1798;48.486;9.232;2023-02-07T03:44:49;23.43;;;14.40;;
3567;SDS011;1798;48.486;9.232;2023-02-07T03:47:17;27.03;;;15.27;;
3567;SDS011;1798;48.486;9.232;2023-02-07T03:49:44;27.17;;;15.77;;
3567;SDS011;1798;48.486;9.232;2023-02-07T03:52:11;28.00;;;15.13;;
3567;SDS011;1798;48.486;9.232;2023-02-07T03:54:39;30.93;;;15.90;;
3567;SDS011;1798;48.486;9.232;2023-02-07T03:57:06;34.93;;;15.43;;
3567;SDS011;1798;48.486;9.232;2023-02-07T03:59:33;31.00;;;15.27;;
3567;SDS011;1798;48.486;9.232;2023-02-07T04:02:00;24.27;;;14.17;;
3567;SDS011;1798;48.486;9.232;2023-02-07T04:04:27;23.63;;;13.60;;
3567;SDS011;1798;48.486;9.232;2023-02-07T04:06:53;26.60;;;15.73;;
3567;SDS011;1798;48.486;9.232;2023-02-07T04:09:20;32.00;;;16.90;;
3567;SDS011;1798;48.486;9.232;2023-02-07T04:11:49;20.67;;;13.07;;
3567;SDS011;1798;48.486;9.232;2023-02-07T04:14:16;25.30;;;13.70;;
3567;SDS011;1798;48.486;9.232;2023-02-07T04:16:44;21.70;;;12.37;;
3567;SDS011;1798;48.486;9.232;2023-02-07T04:19:10;24.90;;;14.33;;
3567;SDS011;1798;48.486;9.232;2023-02-07T04:21:37;23.83;;;14.20;;
3567;SDS011;1798;48.486;9.232;2023-02-07T04:24:04;27.37;;;13.60;;
3567;SDS011;1798;48.486;9.232;2023-02-07T04:26:31;23.97;;;12.87;;
3567;SDS011;1798;48.486;9.232;2023-02-07T04:28:59;23.47;;;13.03;;
3567;SDS011;1798;48.486;9.232;2023-02-07T04:31:25;24.87;;;13.40;;
3567;SDS011;1798;48.486;9.232;2023-02-07T04:33:52;21.70;;;13.03;;
3567;SDS011;1798;48.486;9.232;2023-02-07T04:36:19;25.40;;;13.90;;
3567;SDS011;1798;48.486;9.232;2023-02-07T04:38:46;19.73;;;12.50;;
3567;SDS011;1798;48.486;9.232;2023-02-07T04:41:13;25.87;;;15.70;;
3567;SDS011;1798;48.486;9.232;2023-02-07T04:43:40;24.80;;;14.40;;
3567;SDS011;1798;48.486;9.232;2023-02-07T04:46:08;17.90;;;11.10;;
3567;SDS011;1798;48.486;9.232;2023-02-07T04:48:35;19.37;;;11.67;;
3567;SDS011;1798;48.486;9.232;2023-02-07T04:51:02;21.23;;;12.60;;
3567;SDS011;1798;48.486;9.232;2023-02-07T04:53:29;35.03;;;14.60;;
3567;SDS011;1798;48.486;9.232;2023-02-07T04:55:56;25.03;;;12.83;;
3567;SDS011;1798;48.486;9.232;2023-02-07T04:58:23;25.40;;;13.30;;
3567;SDS011;1798;48.486;9.232;2023-02-07T05:00:50;22.37;;;13.17;;
3567;SDS011;1798;48.486;9.232;2023-02-07T05:03:19;20.90;;;12.60;;
3567;SDS011;1798;48.486;9.232;2023-02-07T05:05:45;23.13;;;13.83;;
3567;SDS011;1798;48.486;9.232;2023-02-07T05:08:12;21.67;;;12.53;;
3567;SDS011;1798;48.486;9.232;2023-02-07T05:10:39;22.00;;;12.80;;
3567;SDS011;1798;48.486;9.232;2023-02-07T05:13:06;20.60;;;13.50;;
3567;SDS011;1798;48.486;9.232;2023-02-07T05:15:33;25.00;;;15.60;;
3567;SDS011;1798;48.486;9.232;2023-02-07T05:18:01;24.70;;;14.90;;
3567;SDS011;1798;48.486;9.232;2023-02-07T05:20:30;25.93;;;13.93;;
3567;SDS011;1798;48.486;9.232;2023-02-07T05:22:56;30.53;;;15.23;;
3567;SDS011;1798;48.486;9.232;2023-02-07T05:25:23;29.97;;;15.77;;
3567;SDS011;1798;48.486;9.232;2023-02-07T05:27:50;23.53;;;13.23;;
3567;SDS011;1798;48.486;9.232;2023-02-07T05:30:18;23.50;;;12.77;;
3567;SDS011;1798;48.486;9.232;2023-02-07T05:32:45;20.70;;;14.07;;
3567;SDS011;1798;48.486;9.232;2023-02-07T05:35:30;27.37;;;15.33;;
3567;SDS011;1798;48.486;9.232;2023-02-07T05:37:57;27.90;;;15.00;;
3567;SDS011;1798;48.486;9.232;2023-02-07T05:40:24;26.40;;;14.00;;
3567;SDS011;1798;48.486;9.232;2023-02-07T05:42:51;29.50;;;15.10;;
3567;SDS011;1798;48.486;9.232;2023-02-07T05:45:18;20.83;;;13.20;;
3567;SDS011;1798;48.486;9.232;2023-02-07T05:47:45;25.80;;;13.53;;
3567;SDS011;1798;48.486;9.232;2023-02-07T05:50:12;25.23;;;14.87;;
3567;SDS011;1798;48.486;9.232;2023-02-07T05:52:41;22.70;;;13.97;;
3567;SDS011;1798;48.486;9.232;2023-02-07T05:55:08;20.67;;;14.67;;
3567;SDS011;1798;48.486;9.232;2023-02-07T05:57:35;26.23;;;13.43;;
3567;SDS011;1798;48.486;9.232;2023-02-07T06:00:02;25.27;;;14.40;;
3567;SDS011;1798;48.486;9.232;2023-02-07T06:02:30;19.53;;;12.07;;
3567;SDS011;1798;48.486;9.232;2023-02-07T06:04:57;20.40;;;13.23;;
3567;SDS011;1798;48.486;9.232;2023-02-07T06:07:24;25.30;;;12.80;;
3567;SDS011;1798;48.486;9.232;2023-02-07T06:09:52;22.30;;;14.70;;
3567;SDS011;1798;48.486;9.232;2023-02-07T06:12:19;23.03;;;12.90;;
3567;SDS011;1798;48.486;9.232;2023-02-07T06:14:45;22.60;;;14.27;;
3567;SDS011;1798;48.486;9.232;2023-02-07T06:17:12;18.90;;;11.90;;
3567;SDS011;1798;48.486;9.232;2023-02-07T06:19:39;21.93;;;13.50;;
3567;SDS011;1798;48.486;9.232;2023-02-07T06:22:05;24.13;;;14.23;;
3567;SDS011;1798;48.486;9.232;2023-02-07T06:24:32;26.00;;;14.63;;
3567;SDS011;1798;48.486;9.232;2023-02-07T06:27:00;22.17;;;13.57;;
3567;SDS011;1798;48.486;9.232;2023-02-07T06:29:27;68.13;;;16.10;;
3567;SDS011;1798;48.486;9.232;2023-02-07T06:31:54;25.57;;;15.40;;
3567;SDS011;1798;48.486;9.232;2023-02-07T06:34:20;23.23;;;13.20;;
3567;SDS011;1798;48.486;9.232;2023-02-07T06:36:47;22.03;;;13.80;;
3567;SDS011;1798;48.486;9.232;2023-02-07T06:39:14;26.87;;;14.90;;
3567;SDS011;1798;48.486;9.232;2023-02-07T06:41:41;23.10;;;14.20;;
3567;SDS011;1798;48.486;9.232;2023-02-07T06:44:09;27.07;;;14.87;;
3567;SDS011;1798;48.486;9.232;2023-02-07T06:46:36;28.70;;;13.13;;
3567;SDS011;1798;48.486;9.232;2023-02-07T06:49:02;26.73;;;14.17;;
3567;SDS011;1798;48.486;9.232;2023-02-07T06:51:29;35.77;;;14.33;;
3567;SDS011;1798;48.486;9.232;2023-02-07T06:53:56;26.50;;;14.17;;
3567;SDS011;1798;48.486;9.232;2023-02-07T06:56:23;22.17;;;14.13;;
3567;SDS011;1798;48.486;9.232;2023-02-07T06:58:50;23.53;;;13.07;;
3567;SDS011;1798;48.486;9.232;2023-02-07T07:01:18;25.90;;;14.87;;
3567;SDS011;1798;48.486;9.232;2023-02-07T07:03:46;21.53;;;14.33;;
3567;SDS011;1798;48.486;9.232;2023-02-07T07:06:13;24.30;;;13.67;;
3567;SDS011;1798;48.486;9.232;2023-02-07T07:08:40;19.13;;;12.40;;
3567;SDS011;1798;48.486;9.232;2023-02-07T07:11:06;22.40;;;13.00;;
3567;SDS011;1798;48.486;9.232;2023-02-07T07:13:33;28.80;;;15.20;;
3567;SDS011;1798;48.486;9.232;2023-02-07T07:16:00;27.73;;;14.20;;
3567;SDS011;1798;48.486;9.232;2023-02-07T07:18:28;32.30;;;15.47;;
3567;SDS011;1798;48.486;9.232;2023-02-07T07:20:55;24.40;;;14.00;;
3567;SDS011;1798;48.486;9.232;2023-02-07T07:23:22;27.47;;;13.90;;
3567;SDS011;1798;48.486;9.232;2023-02-07T07:25:49;40.67;;;14.93;;
3567;SDS011;1798;48.486;9.232;2023-02-07T07:28:15;22.30;;;14.50;;
3567;SDS011;1798;48.486;9.232;2023-02-07T07:30:42;23.03;;;14.80;;
3567;SDS011;1798;48.486;9.232;2023-02-07T07:33:09;29.17;;;14.10;;
3567;SDS011;1798;48.486;9.232;2023-02-07T07:35:37;23.37;;;13.73;;
3567;SDS011;1798;48.486;9.232;2023-02-07T07:38:04;34.40;;;15.50;;
3567;SDS011;1798;48.486;9.232;2023-02-07T07:40:31;35.70;;;14.27;;
3567;SDS011;1798;48.486;9.232;2023-02-07T07:42:57;22.10;;;13.30;;
3567;SDS011;1798;48.486;9.232;2023-02-07T07:45:24;28.53;;;17.20;;
3567;SDS011;1798;48.486;9.232;2023-02-07T07:47:51;31.90;;;15.43;;
3567;SDS011;1798;48.486;9.232;2023-02-07T07:50:18;32.07;;;19.27;;
3567;SDS011;1798;48.486;9.232;2023-02-07T07:52:46;48.63;;;17.63;;
3567;SDS011;1798;48.486;9.232;2023-02-07T07:55:13;29.27;;;16.93;;
3567;SDS011;1798;48.486;9.232;2023-02-07T07:57:40;34.53;;;18.80;;
3567;SDS011;1798;48.486;9.232;2023-02-07T08:00:08;28.27;;;16.47;;
3567;SDS011;1798;48.486;9.232;2023-02-07T08:02:35;34.67;;;17.87;;
3567;SDS011;1798;48.486;9.232;2023-02-07T08:05:02;30.93;;;15.47;;
3567;SDS011;1798;48.486;9.232;2023-02-07T08:07:29;28.60;;;16.30;;
3567;SDS011;1798;48.486;9.232;2023-02-07T08:09:57;28.50;;;16.87;;
3567;SDS011;1798;48.486;9.232;2023-02-07T08:12:24;28.30;;;18.37;;
3567;SDS011;1798;48.486;9.232;2023-02-07T08:14:51;33.43;;;17.53;;
3567;SDS011;1798;48.486;9.232;2023-02-07T08:17:17;33.73;;;18.63;;
3567;SDS011;1798;48.486;9.232;2023-02-07T08:19:44;35.43;;;17.00;;
3567;SDS011;1798;48.486;9.232;2023-02-07T08:22:11;42.40;;;18.20;;
3567;SDS011;1798;48.486;9.232;2023-02-07T08:24:38;27.67;;;17.00;;
3567;SDS011;1798;48.486;9.232;2023-02-07T08:27:07;27.23;;;16.23;;
3567;SDS011;1798;48.486;9.232;2023-02-07T08:29:34;38.00;;;18.10;;
3567;SDS011;1798;48.486;9.232;2023-02-07T08:32:01;31.90;;;16.13;;
3567;SDS011;1798;48.486;9.232;2023-02-07T08:34:27;28.47;;;15.40;;
3567;SDS011;1798;48.486;9.232;2023-02-07T08:36:55;30.43;;;17.13;;
3567;SDS011;1798;48.486;9.232;2023-02-07T08:39:22;23.80;;;13.87;;
3567;SDS011;1798;48.486;9.232;2023-02-07T08:41:49;25.83;;;16.00;;
3567;SDS011;1798;48.486;9.232;2023-02-07T08:44:17;33.33;;;18.00;;
3567;SDS011;1798;48.486;9.232;2023-02-07T08:46:43;29.93;;;15.43;;
3567;SDS011;1798;48.486;9.232;2023-02-07T08:49:10;27.20;;;16.30;;
3567;SDS011;1798;48.486;9.232;2023-02-07T08:51:37;27.27;;;15.53;;
3567;SDS011;1798;48.486;9.232;2023-02-07T08:54:05;25.47;;;14.57;;
3567;SDS011;1798;48.486;9.232;2023-02-07T08:56:32;26.60;;;16.23;;
3567;SDS011;1798;48.486;9.232;2023-02-07T08:58:59;28.63;;;17.90;;
3567;SDS011;1798;48.486;9.232;2023-02-07T09:01:27;29.90;;;15.57;;
3567;SDS011;1798;48.486;9.232;2023-02-07T09:03:54;24.50;;;15.47;;
3567;SDS011;1798;48.486;9.232;2023-02-07T09:06:22;25.83;;;16.00;;
3567;SDS011;1798;48.486;9.232;2023-02-07T09:08:48;24.30;;;14.90;;
3567;SDS011;1798;48.486;9.232;2023-02-07T09:11:15;28.57;;;15.20;;
3567;SDS011;1798;48.486;9.232;2023-02-07T09:13:42;28.40;;;15.90;;
3567;SDS011;1798;48.486;9.232;2023-02-07T09:16:11;33.87;;;18.37;;
3567;SDS011;1798;48.486;9.232;2023-02-07T09:18:40;27.50;;;15.83;;
3567;SDS011;1798;48.486;9.232;2023-02-07T09:21:07;43.53;;;16.50;;
3567;SDS011;1798;48.486;9.232;2023-02-07T09:23:33;35.57;;;17.70;;
3567;SDS011;1798;48.486;9.232;2023-02-07T09:26:01;22.00;;;14.40;;
3567;SDS011;1798;48.486;9.232;2023-02-07T09:28:29;30.70;;;15.90;;
3567;SDS011;1798;48.486;9.232;2023-02-07T09:30:56;28.73;;;17.83;;
3567;SDS011;1798;48.486;9.232;2023-02-07T09:33:23;30.17;;;16.40;;
3567;SDS011;1798;48.486;9.232;2023-02-07T09:35:51;29.70;;;18.47;;
3567;SDS011;1798;48.486;9.232;2023-02-07T09:38:20;41.07;;;18.27;;
3567;SDS011;1798;48.486;9.232;2023-02-07T09:40:49;25.93;;;15.10;;
3567;SDS011;1798;48.486;9.232;2023-02-07T09:43:19;31.80;;;17.63;;
3567;SDS011;1798;48.486;9.232;2023-02-07T09:45:58;36.03;;;18.83;;
3567;SDS011;1798;48.486;9.232;2023-02-07T09:48:29;26.67;;;15.90;;
3567;SDS011;1798;48.486;9.232;2023-02-07T09:51:00;27.60;;;16.47;;
3567;SDS011;1798;48.486;9.232;2023-02-07T09:53:32;29.63;;;17.60;;
3567;SDS011;1798;48.486;9.232;2023-02-07T09:56:02;33.43;;;17.50;;
3567;SDS011;1798;48.486;9.232;2023-02-07T09:58:32;33.57;;;18.50;;
3567;SDS011;1798;48.486;9.232;2023-02-07T10:01:02;34.07;;;17.90;;
3567;SDS011;1798;48.486;9.232;2023-02-07T10:03:33;29.47;;;17.77;;
3567;SDS011;1798;48.486;9.232;2023-02-07T10:06:04;32.40;;;16.47;;
3567;SDS011;1798;48.486;9.232;2023-02-07T10:08:34;36.50;;;19.47;;
3567;SDS011;1798;48.486;9.232;2023-02-07T10:11:07;30.40;;;18.30;;
3567;SDS011;1798;48.486;9.232;2023-02-07T10:13:41;27.80;;;17.03;;
3567;SDS011;1798;48.486;9.232;2023-02-07T10:16:18;40.33;;;17.90;;
3567;SDS011;1798;48.486;9.232;2023-02-07T10:18:53;29.80;;;16.77;;
3567;SDS011;1798;48.486;9.232;2023-02-07T10:21:26;33.33;;;18.00;;
3567;SDS011;1798;48.486;9.232;2023-02-07T10:24:00;35.80;;;17.60;;
3567;SDS011;1798;48.486;9.232;2023-02-07T10:26:34;26.40;;;15.07;;
3567;SDS011;1798;48.486;9.232;2023-02-07T10:31:51;23.77;;;15.13;;
3567;SDS011;1798;48.486;9.232;2023-02-07T10:34:19;26.27;;;16.70;;
3567;SDS011;1798;48.486;9.232;2023-02-07T10:36:50;27.67;;;16.20;;
3567;SDS011;1798;48.486;9.232;2023-02-07T10:39:20;31.70;;;15.77;;
3567;SDS011;1798;48.486;9.232;2023-02-07T10:41:49;29.30;;;15.00;;
3567;SDS011;1798;48.486;9.232;2023-02-07T10:44:20;27.57;;;15.80;;
3567;SDS011;1798;48.486;9.232;2023-02-07T10:46:49;23.53;;;15.20;;
3567;SDS011;1798;48.486;9.232;2023-02-07T10:49:20;28.50;;;16.97;;
3567;SDS011;1798;48.486;9.232;2023-02-07T10:51:49;27.40;;;15.10;;
3567;SDS011;1798;48.486;9.232;2023-02-07T10:54:17;25.63;;;14.50;;
3567;SDS011;1798;48.486;9.232;2023-02-07T10:56:49;24.43;;;14.23;;
3567;SDS011;1798;48.486;9.232;2023-02-07T10:59:28;22.90;;;14.10;;
3567;SDS011;1798;48.486;9.232;2023-02-07T11:01:58;28.90;;;14.83;;
3567;SDS011;1798;48.486;9.232;2023-02-07T11:04:31;28.30;;;15.03;;
3567;SDS011;1798;48.486;9.232;2023-02-07T11:07:02;27.23;;;16.67;;
3567;SDS011;1798;48.486;9.232;2023-02-07T11:09:31;21.47;;;13.30;;
3567;SDS011;1798;48.486;9.232;2023-02-07T11:12:04;22.23;;;13.53;;
3567;SDS011;1798;48.486;9.232;2023-02-07T11:14:38;24.60;;;15.20;;
3567;SDS011;1798;48.486;9.232;2023-02-07T11:17:05;23.37;;;14.00;;
3567;SDS011;1798;48.486;9.232;2023-02-07T11:19:32;21.00;;;12.40;;
3567;SDS011;1798;48.486;9.232;2023-02-07T11:22:08;26.60;;;14.30;;
3567;SDS011;1798;48.486;9.232;2023-02-07T11:24:35;24.10;;;14.63;;
3567;SDS011;1798;48.486;9.232;2023-02-07T11:27:03;32.97;;;14.03;;
3567;SDS011;1798;48.486;9.232;2023-02-07T11:29:33;28.33;;;15.63;;
3567;SDS011;1798;48.486;9.232;2023-02-07T11:32:03;25.03;;;15.10;;
3567;SDS011;1798;48.486;9.232;2023-02-07T11:34:39;22.10;;;14.90;;
3567;SDS011;1798;48.486;9.232;2023-02-07T11:37:16;26.83;;;13.87;;
3567;SDS011;1798;48.486;9.232;2023-02-07T11:39:45;22.70;;;14.33;;
3567;SDS011;1798;48.486;9.232;2023-02-07T11:42:13;25.73;;;15.27;;
3567;SDS011;1798;48.486;9.232;2023-02-07T11:44:43;26.17;;;15.30;;
3567;SDS011;1798;48.486;9.232;2023-02-07T11:47:12;21.43;;;13.83;;
3567;SDS011;1798;48.486;9.232;2023-02-07T11:49:41;23.63;;;13.03;;
3567;SDS011;1798;48.486;9.232;2023-02-07T11:52:10;32.53;;;14.83;;
3567;SDS011;1798;48.486;9.232;2023-02-07T11:54:37;25.73;;;14.40;;
3567;SDS011;1798;48.486;9.232;2023-02-07T11:57:06;34.57;;;14.70;;
3567;SDS011;1798;48.486;9.232;2023-02-07T11:59:36;23.47;;;13.00;;
3567;SDS011;1798;48.486;9.232;2023-02-07T12:02:13;22.80;;;15.07;;
3567;SDS011;1798;48.486;9.232;2023-02-07T12:04:42;20.43;;;13.00;;
3567;SDS011;1798;48.486;9.232;2023-02-07T12:07:12;18.57;;;11.77;;
3567;SDS011;1798;48.486;9.232;2023-02-07T12:09:44;23.47;;;12.93;;
3567;SDS011;1798;48.486;9.232;2023-02-07T12:12:14;23.23;;;12.17;;
3567;SDS011;1798;48.486;9.232;2023-02-07T12:14:45;21.57;;;13.03;;
3567;SDS011;1798;48.486;9.232;2023-02-07T12:17:16;25.63;;;14.43;;
3567;SDS011;1798;48.486;9.232;2023-02-07T12:19:50;24.37;;;11.97;;
3567;SDS011;1798;48.486;9.232;2023-02-07T12:22:20;18.87;;;11.20;;
3567;SDS011;1798;48.486;9.232;2023-02-07T12:24:50;16.47;;;11.23;;
3567;SDS011;1798;48.486;9.232;2023-02-07T12:27:19;20.50;;;12.63;;
3567;SDS011;1798;48.486;9.232;2023-02-07T12:29:50;21.83;;;14.10;;
3567;SDS011;1798;48.486;9.232;2023-02-07T12:32:22;25.97;;;13.40;;
3567;SDS011;1798;48.486;9.232;2023-02-07T12:34:55;22.90;;;11.23;;
3567;SDS011;1798;48.486;9.232;2023-02-07T12:37:31;18.87;;;11.73;;
3567;SDS011;1798;48.486;9.232;2023-02-07T12:40:03;22.80;;;13.03;;
3567;SDS011;1798;48.486;9.232;2023-02-07T12:42:36;17.60;;;9.30;;
3567;SDS011;1798;48.486;9.232;2023-02-07T12:45:04;26.03;;;11.90;;
3567;SDS011;1798;48.486;9.232;2023-02-07T12:47:40;20.10;;;10.57;;
3567;SDS011;1798;48.486;9.232;2023-02-07T12:50:12;16.67;;;11.30;;
3567;SDS011;1798;48.486;9.232;2023-02-07T12:53:00;29.23;;;13.00;;
3567;SDS011;1798;48.486;9.232;2023-02-07T12:55:44;26.10;;;13.27;;
3567;SDS011;1798;48.486;9.232;2023-02-07T12:58:23;23.30;;;10.50;;
3567;SDS011;1798;48.486;9.232;2023-02-07T13:00:57;17.80;;;9.70;;
3567;SDS011;1798;48.486;9.232;2023-02-07T13:03:31;13.40;;;9.03;;
3567;SDS011;1798;48.486;9.232;2023-02-07T13:06:09;20.37;;;10.07;;
3567;SDS011;1798;48.486;9.232;2023-02-07T13:08:42;11.90;;;7.87;;
3567;SDS011;1798;48.486;9.232;2023-02-07T13:11:17;16.73;;;10.10;;
3567;SDS011;1798;48.486;9.232;2023-02-07T13:13:51;16.97;;;9.90;;
3567;SDS011;1798;48.486;9.232;2023-02-07T13:16:25;21.33;;;10.60;;
3567;SDS011;1798;48.486;9.232;2023-02-07T13:18:56;22.53;;;11.27;;
3567;SDS011;1798;48.486;9.232;2023-02-07T13:21:26;21.57;;;13.00;;
3567;SDS011;1798;48.486;9.232;2023-02-07T13:24:00;17.40;;;11.03;;
3567;SDS011;1798;48.486;9.232;2023-02-07T13:26:28;28.50;;;9.30;;
3567;SDS011;1798;48.486;9.232;2023-02-07T13:28:57;15.73;;;10.93;;
3567;SDS011;1798;48.486;9.232;2023-02-07T13:31:34;15.70;;;10.50;;
3567;SDS011;1798;48.486;9.232;2023-02-07T13:34:03;17.17;;;11.70;;
3567;SDS011;1798;48.486;9.232;2023-02-07T13:36:32;17.93;;;10.17;;
3567;SDS011;1798;48.486;9.232;2023-02-07T13:39:06;19.03;;;11.03;;
3567;SDS011;1798;48.486;9.232;2023-02-07T13:41:40;18.63;;;11.20;;
3567;SDS011;1798;48.486;9.232;2023-02-07T13:44:12;15.27;;;10.20;;
3567;SDS011;1798;48.486;9.232;2023-02-07T13:49:48;20.30;;;12.03;;
3567;SDS011;1798;48.486;9.232;2023-02-07T13:52:19;18.60;;;11.50;;
3567;SDS011;1798;48.486;9.232;2023-02-07T13:54:52;19.00;;;10.80;;
3567;SDS011;1798;48.486;9.232;2023-02-07T13:57:36;21.73;;;12.57;;
3567;SDS011;1798;48.486;9.232;2023-02-07T14:00:23;19.30;;;10.57;;
3567;SDS011;1798;48.486;9.232;2023-02-07T14:02:52;21.00;;;10.97;;
3567;SDS011;1798;48.486;9.232;2023-02-07T14:05:21;18.70;;;9.93;;
3567;SDS011;1798;48.486;9.232;2023-02-07T14:07:52;18.77;;;10.80;;
3567;SDS011;1798;48.486;9.232;2023-02-07T14:13:29;21.50;;;10.43;;
3567;SDS011;1798;48.486;9.232;2023-02-07T14:16:02;18.80;;;10.37;;
3567;SDS011;1798;48.486;9.232;2023-02-07T14:18:38;19.20;;;11.27;;
3567;SDS011;1798;48.486;9.232;2023-02-07T14:24:08;15.80;;;9.37;;
3567;SDS011;1798;48.486;9.232;2023-02-07T14:26:58;22.70;;;11.70;;
3567;SDS011;1798;48.486;9.232;2023-02-07T14:32:45;21.03;;;10.70;;
3567;SDS011;1798;48.486;9.232;2023-02-07T14:35:36;18.43;;;10.37;;
3567;SDS011;1798;48.486;9.232;2023-02-07T14:38:19;23.83;;;12.83;;
3567;SDS011;1798;48.486;9.232;2023-02-07T14:40:49;15.30;;;9.53;;
3567;SDS011;1798;48.486;9.232;2023-02-07T14:43:28;17.20;;;10.47;;
3567;SDS011;1798;48.486;9.232;2023-02-07T14:46:04;23.77;;;11.97;;
3567;SDS011;1798;48.486;9.232;2023-02-07T14:48:36;21.97;;;12.20;;
3567;SDS011;1798;48.486;9.232;2023-02-07T14:51:06;21.50;;;13.10;;
3567;SDS011;1798;48.486;9.232;2023-02-07T14:53:37;22.20;;;12.80;;
3567;SDS011;1798;48.486;9.232;2023-02-07T14:56:04;20.97;;;12.20;;
3567;SDS011;1798;48.486;9.232;2023-02-07T14:58:35;20.30;;;11.63;;
3567;SDS011;1798;48.486;9.232;2023-02-07T15:01:09;17.00;;;10.50;;
3567;SDS011;1798;48.486;9.232;2023-02-07T15:03:37;26.50;;;11.77;;
3567;SDS011;1798;48.486;9.232;2023-02-07T15:06:12;20.07;;;11.60;;
3567;SDS011;1798;48.486;9.232;2023-02-07T15:08:52;16.60;;;11.20;;
3567;SDS011;1798;48.486;9.232;2023-02-07T15:11:21;25.07;;;11.67;;
3567;SDS011;1798;48.486;9.232;2023-02-07T15:13:52;25.00;;;11.87;;
3567;SDS011;1798;48.486;9.232;2023-02-07T15:16:21;22.60;;;12.40;;
3567;SDS011;1798;48.486;9.232;2023-02-07T15:18:49;34.67;;;12.27;;
3567;SDS011;1798;48.486;9.232;2023-02-07T15:21:19;24.93;;;11.77;;
3567;SDS011;1798;48.486;9.232;2023-02-07T15:23:48;20.20;;;10.50;;